Check out our new PWSWeather beta!
PWSweather.com
Personal Weather Stations
Station Observations
KMIEASTT1
Tawas Bay, East Tawas, MI 48730

Tawas BayEast Tawas, MI 48730

Lat: 44.28, Lon: -83.48

Elevation: 600

Station Type: Davis VantagePro

http://www.tawasbayweather.com

High Low Average
Temperature 32.7°F0.4°C 22.8°F-5.1°C 29.0°F-1.7°C
Dew Point 31.3°F-0.4°C 20.1°F-6.6°C 27.2°F-2.7°C
Winds 26.0 mph 41.8 kmh 4.0 mph 6.4 kmh 15.0 mph S24.1 kmh S
Wind Gusts 31.0 mph49.9 kmh 5.0 mph8.0 kmh 20.0 mph32.2 kmh
Humidity 96% 86% 93%
Pressure 30.57 in1035.2 mb 29.48 in998.3 mb -
Precipitation 0.00 in0.0 mm - -
Hour Temp Dew Point Humidity Winds Wind Gusts Pressure Precip Precip Rate Daily Precip Total
12:00 AM 24.2°F-4.3°C 20.6°F-6.3°C 86% 18.0 mph ESE29.0 kmh ESE 19.0 mph30.6 kmh 30.57 in1035.2 mb 0.00 in0.0 mm 0.00 in0.0 mm 0.00 in0.0 mm
12:15 AM 24.1°F-4.4°C 20.8°F-6.2°C 87% 18.0 mph SE29.0 kmh SE 20.0 mph32.2 kmh 30.56 in1034.9 mb 0.00 in0.0 mm 0.00 in0.0 mm 0.00 in0.0 mm
12:30 AM 22.8°F-5.1°C 20.1°F-6.6°C 89% 10.0 mph ENE16.1 kmh ENE 15.0 mph24.1 kmh 30.53 in1033.9 mb 0.00 in0.0 mm 0.00 in0.0 mm 0.00 in0.0 mm
12:45 AM 23.8°F-4.6°C 21.8°F-5.7°C 92% 18.0 mph SE29.0 kmh SE 19.0 mph30.6 kmh 30.52 in1033.5 mb 0.00 in0.0 mm 0.00 in0.0 mm 0.00 in0.0 mm
01:00 AM 24.1°F-4.4°C 21.9°F-5.6°C 91% 17.0 mph ESE27.4 kmh ESE 19.0 mph30.6 kmh 30.51 in1033.2 mb 0.00 in0.0 mm 0.00 in0.0 mm 0.00 in0.0 mm
01:15 AM 24.2°F-4.3°C 21.7°F-5.7°C 90% 18.0 mph SE29.0 kmh SE 21.0 mph33.8 kmh 30.49 in1032.5 mb 0.00 in0.0 mm 0.00 in0.0 mm 0.00 in0.0 mm
01:30 AM 24.4°F-4.2°C 21.9°F-5.6°C 90% 17.0 mph SE27.4 kmh SE 21.0 mph33.8 kmh 30.48 in1032.2 mb 0.00 in0.0 mm 0.00 in0.0 mm 0.00 in0.0 mm
01:45 AM 24.6°F-4.1°C 21.8°F-5.7°C 89% 18.0 mph ESE29.0 kmh ESE 22.0 mph35.4 kmh 30.46 in1031.5 mb 0.00 in0.0 mm 0.00 in0.0 mm 0.00 in0.0 mm
02:00 AM 24.7°F-4.1°C 21.7°F-5.7°C 88% 22.0 mph ESE35.4 kmh ESE 23.0 mph37.0 kmh 30.44 in1030.8 mb 0.00 in0.0 mm 0.00 in0.0 mm 0.00 in0.0 mm
02:15 AM 25.0°F-3.9°C 21.7°F-5.7°C 87% 21.0 mph SE33.8 kmh SE 25.0 mph40.2 kmh 30.43 in1030.5 mb 0.00 in0.0 mm 0.00 in0.0 mm 0.00 in0.0 mm
02:30 AM 25.1°F-3.8°C 21.8°F-5.7°C 87% 21.0 mph SE33.8 kmh SE 25.0 mph40.2 kmh 30.42 in1030.1 mb 0.00 in0.0 mm 0.00 in0.0 mm 0.00 in0.0 mm
02:45 AM 25.3°F-3.7°C 22.8°F-5.1°C 90% 18.0 mph SE29.0 kmh SE 24.0 mph38.6 kmh 30.40 in1029.5 mb 0.00 in0.0 mm 0.00 in0.0 mm 0.00 in0.0 mm
03:00 AM 25.4°F-3.7°C 22.9°F-5.1°C 90% 23.0 mph SE37.0 kmh SE 26.0 mph41.8 kmh 30.39 in1029.1 mb 0.00 in0.0 mm 0.00 in0.0 mm 0.00 in0.0 mm
03:15 AM 25.6°F-3.6°C 22.8°F-5.1°C 89% 25.0 mph SE40.2 kmh SE 27.0 mph43.5 kmh 30.37 in1028.4 mb 0.00 in0.0 mm 0.00 in0.0 mm 0.00 in0.0 mm
03:30 AM 25.7°F-3.5°C 22.7°F-5.2°C 88% 22.0 mph SE35.4 kmh SE 30.0 mph48.3 kmh 30.35 in1027.8 mb 0.00 in0.0 mm 0.00 in0.0 mm 0.00 in0.0 mm
03:45 AM 25.7°F-3.5°C 22.7°F-5.2°C 88% 22.0 mph SE35.4 kmh SE 27.0 mph43.5 kmh 30.32 in1026.8 mb 0.00 in0.0 mm 0.00 in0.0 mm 0.00 in0.0 mm
04:00 AM 25.9°F-3.4°C 22.8°F-5.1°C 88% 25.0 mph ESE40.2 kmh ESE 28.0 mph45.1 kmh 30.30 in1026.1 mb 0.00 in0.0 mm 0.00 in0.0 mm 0.00 in0.0 mm
04:15 AM 26.1°F-3.3°C 23.3°F-4.8°C 89% 17.0 mph SE27.4 kmh SE 27.0 mph43.5 kmh 30.29 in1025.7 mb 0.00 in0.0 mm 0.00 in0.0 mm 0.00 in0.0 mm
04:30 AM 26.3°F-3.2°C 23.5°F-4.7°C 89% 18.0 mph SE29.0 kmh SE 28.0 mph45.1 kmh 30.27 in1025.1 mb 0.00 in0.0 mm 0.00 in0.0 mm 0.00 in0.0 mm
04:45 AM 26.4°F-3.1°C 24.1°F-4.4°C 91% 23.0 mph SE37.0 kmh SE 26.0 mph41.8 kmh 30.26 in1024.7 mb 0.00 in0.0 mm 0.00 in0.0 mm 0.00 in0.0 mm
05:00 AM 26.5°F-3.1°C 24.8°F-4.0°C 93% 19.0 mph SE30.6 kmh SE 24.0 mph38.6 kmh 30.26 in1024.7 mb 0.00 in0.0 mm 0.00 in0.0 mm 0.00 in0.0 mm
05:15 AM 26.7°F-2.9°C 24.7°F-4.1°C 92% 18.0 mph SE29.0 kmh SE 22.0 mph35.4 kmh 30.23 in1023.7 mb 0.00 in0.0 mm 0.00 in0.0 mm 0.00 in0.0 mm
05:30 AM 26.7°F-2.9°C 24.2°F-4.3°C 90% 20.0 mph SE32.2 kmh SE 26.0 mph41.8 kmh 30.21 in1023.0 mb 0.00 in0.0 mm 0.00 in0.0 mm 0.00 in0.0 mm
05:45 AM 26.6°F-3.0°C 24.3°F-4.3°C 91% 18.0 mph SE29.0 kmh SE 24.0 mph38.6 kmh 30.20 in1022.7 mb 0.00 in0.0 mm 0.00 in0.0 mm 0.00 in0.0 mm
06:00 AM 26.7°F-2.9°C 24.7°F-4.1°C 92% 21.0 mph SE33.8 kmh SE 24.0 mph38.6 kmh 30.19 in1022.4 mb 0.00 in0.0 mm 0.00 in0.0 mm 0.00 in0.0 mm
06:15 AM 26.7°F-2.9°C 24.7°F-4.1°C 92% 18.0 mph SE29.0 kmh SE 24.0 mph38.6 kmh 30.16 in1021.3 mb 0.00 in0.0 mm 0.00 in0.0 mm 0.00 in0.0 mm
06:30 AM 26.6°F-3.0°C 24.9°F-3.9°C 93% 17.0 mph SE27.4 kmh SE 23.0 mph37.0 kmh 30.16 in1021.3 mb 0.00 in0.0 mm 0.00 in0.0 mm 0.00 in0.0 mm
06:45 AM 26.8°F-2.9°C 25.3°F-3.7°C 94% 20.0 mph SE32.2 kmh SE 24.0 mph38.6 kmh 30.14 in1020.7 mb 0.00 in0.0 mm 0.00 in0.0 mm 0.00 in0.0 mm
07:00 AM 26.6°F-3.0°C 25.1°F-3.8°C 94% 23.0 mph SE37.0 kmh SE 25.0 mph40.2 kmh 30.12 in1020.0 mb 0.00 in0.0 mm 0.00 in0.0 mm 0.00 in0.0 mm
07:15 AM 26.6°F-3.0°C 25.1°F-3.8°C 94% 17.0 mph SE27.4 kmh SE 25.0 mph40.2 kmh 30.10 in1019.3 mb 0.00 in0.0 mm 0.00 in0.0 mm 0.00 in0.0 mm
07:30 AM 26.8°F-2.9°C 25.3°F-3.7°C 94% 18.0 mph SE29.0 kmh SE 25.0 mph40.2 kmh 30.09 in1019.0 mb 0.00 in0.0 mm 0.00 in0.0 mm 0.00 in0.0 mm
07:45 AM 26.6°F-3.0°C 25.1°F-3.8°C 94% 21.0 mph SE33.8 kmh SE 23.0 mph37.0 kmh 30.06 in1017.9 mb 0.00 in0.0 mm 0.00 in0.0 mm 0.00 in0.0 mm
08:00 AM 26.9°F-2.8°C 25.4°F-3.7°C 94% 25.0 mph SE40.2 kmh SE 28.0 mph45.1 kmh 30.04 in1017.3 mb 0.00 in0.0 mm 0.00 in0.0 mm 0.00 in0.0 mm
08:15 AM 26.9°F-2.8°C 25.4°F-3.7°C 94% 25.0 mph ESE40.2 kmh ESE 30.0 mph48.3 kmh 30.00 in1015.9 mb 0.00 in0.0 mm 0.00 in0.0 mm 0.00 in0.0 mm
08:30 AM 27.1°F-2.7°C 25.6°F-3.6°C 94% 19.0 mph SE30.6 kmh SE 31.0 mph49.9 kmh 29.98 in1015.2 mb 0.00 in0.0 mm 0.00 in0.0 mm 0.00 in0.0 mm
08:45 AM 27.2°F-2.7°C 25.7°F-3.5°C 94% 25.0 mph SE40.2 kmh SE 29.0 mph46.7 kmh 30.00 in1015.9 mb 0.00 in0.0 mm 0.00 in0.0 mm 0.00 in0.0 mm
09:00 AM 27.6°F-2.4°C 26.4°F-3.1°C 95% 22.0 mph SE35.4 kmh SE 28.0 mph45.1 kmh 29.98 in1015.2 mb 0.00 in0.0 mm 0.00 in0.0 mm 0.00 in0.0 mm
09:15 AM 27.6°F-2.4°C 26.1°F-3.3°C 94% 26.0 mph ESE41.8 kmh ESE 28.0 mph45.1 kmh 29.93 in1013.5 mb 0.00 in0.0 mm 0.00 in0.0 mm 0.00 in0.0 mm
09:30 AM 27.9°F-2.3°C 26.4°F-3.1°C 94% 20.0 mph SE32.2 kmh SE 27.0 mph43.5 kmh 29.91 in1012.9 mb 0.00 in0.0 mm 0.00 in0.0 mm 0.00 in0.0 mm
09:45 AM 28.1°F-2.2°C 26.6°F-3.0°C 94% 21.0 mph SE33.8 kmh SE 24.0 mph38.6 kmh 29.90 in1012.5 mb 0.00 in0.0 mm 0.00 in0.0 mm 0.00 in0.0 mm
10:00 AM 28.1°F-2.2°C 26.9°F-2.8°C 95% 20.0 mph SE32.2 kmh SE 23.0 mph37.0 kmh 29.87 in1011.5 mb 0.00 in0.0 mm 0.00 in0.0 mm 0.00 in0.0 mm
10:15 AM 28.5°F-1.9°C 27.3°F-2.6°C 95% 18.0 mph SE29.0 kmh SE 25.0 mph40.2 kmh 29.84 in1010.5 mb 0.11 in2.8 mm 0.44 in11.2 mm 0.11 in2.8 mm
10:30 AM 29.0°F-1.7°C 27.8°F-2.3°C 95% 22.0 mph SE35.4 kmh SE 22.0 mph35.4 kmh 29.82 in1009.8 mb 0.11 in2.8 mm 0.00 in0.0 mm 0.11 in2.8 mm
10:45 AM 29.5°F-1.4°C 28.3°F-2.1°C 95% 17.0 mph SE27.4 kmh SE 24.0 mph38.6 kmh 29.82 in1009.8 mb 0.11 in2.8 mm 0.00 in0.0 mm 0.11 in2.8 mm
11:00 AM 29.8°F-1.2°C 28.6°F-1.9°C 95% 22.0 mph SSE35.4 kmh SSE 22.0 mph35.4 kmh 29.80 in1009.1 mb 0.11 in2.8 mm 0.00 in0.0 mm 0.11 in2.8 mm
11:15 AM 30.1°F-1.1°C 28.8°F-1.8°C 95% 19.0 mph SE30.6 kmh SE 21.0 mph33.8 kmh 29.78 in1008.5 mb 0.11 in2.8 mm 0.00 in0.0 mm 0.11 in2.8 mm
11:30 AM 30.6°F-0.8°C 29.3°F-1.5°C 95% 22.0 mph S35.4 kmh S 22.0 mph35.4 kmh 29.76 in1007.8 mb 0.11 in2.8 mm 0.00 in0.0 mm 0.11 in2.8 mm
11:45 AM 30.6°F-0.8°C 29.3°F-1.5°C 95% 17.0 mph SSE27.4 kmh SSE 22.0 mph35.4 kmh 29.72 in1006.4 mb 0.00 in0.0 mm 0.00 in0.0 mm 0.11 in2.8 mm
12:00 PM 30.7°F-0.7°C 29.7°F-1.3°C 96% 19.0 mph SE30.6 kmh SE 21.0 mph33.8 kmh 29.70 in1005.8 mb 0.00 in0.0 mm 0.00 in0.0 mm 0.11 in2.8 mm
12:15 PM 30.9°F-0.6°C 29.9°F-1.2°C 96% 18.0 mph SE29.0 kmh SE 21.0 mph33.8 kmh 29.68 in1005.1 mb 0.00 in0.0 mm 0.00 in0.0 mm 0.11 in2.8 mm
12:30 PM 31.1°F-0.5°C 30.1°F-1.1°C 96% 13.0 mph SE20.9 kmh SE 22.0 mph35.4 kmh 29.65 in1004.1 mb 0.00 in0.0 mm 0.00 in0.0 mm 0.11 in2.8 mm
12:45 PM 31.3°F-0.4°C 30.3°F-0.9°C 96% 13.0 mph SE20.9 kmh SE 20.0 mph32.2 kmh 29.62 in1003.0 mb 0.00 in0.0 mm 0.00 in0.0 mm 0.11 in2.8 mm
01:00 PM 31.4°F-0.3°C 30.4°F-0.9°C 96% 16.0 mph SSE25.7 kmh SSE 21.0 mph33.8 kmh 29.59 in1002.0 mb 0.00 in0.0 mm 0.00 in0.0 mm 0.11 in2.8 mm
01:15 PM 31.6°F-0.2°C 30.6°F-0.8°C 96% 11.0 mph SSE17.7 kmh SSE 18.0 mph29.0 kmh 29.59 in1002.0 mb 0.00 in0.0 mm 0.00 in0.0 mm 0.11 in2.8 mm
01:30 PM 31.7°F-0.2°C 30.7°F-0.7°C 96% 11.0 mph SSE17.7 kmh SSE 16.0 mph25.7 kmh 29.57 in1001.4 mb 0.00 in0.0 mm 0.00 in0.0 mm 0.11 in2.8 mm
01:45 PM 31.7°F-0.2°C 30.7°F-0.7°C 96% 11.0 mph S17.7 kmh S 15.0 mph24.1 kmh 29.56 in1001.0 mb 0.00 in0.0 mm 0.00 in0.0 mm 0.11 in2.8 mm
02:00 PM 31.6°F-0.2°C 30.6°F-0.8°C 96% 5.0 mph S8.0 kmh S 12.0 mph19.3 kmh 29.55 in1000.7 mb 0.00 in0.0 mm 0.00 in0.0 mm 0.11 in2.8 mm
02:15 PM 31.6°F-0.2°C 30.6°F-0.8°C 96% 6.0 mph SSW9.7 kmh SSW 9.0 mph14.5 kmh 29.53 in1000.0 mb 0.00 in0.0 mm 0.00 in0.0 mm 0.11 in2.8 mm
02:30 PM 31.6°F-0.2°C 30.6°F-0.8°C 96% 5.0 mph S8.0 kmh S 7.0 mph11.3 kmh 29.52 in999.7 mb 0.00 in0.0 mm 0.00 in0.0 mm 0.11 in2.8 mm
02:45 PM 31.6°F-0.2°C 30.6°F-0.8°C 96% 5.0 mph S8.0 kmh S 7.0 mph11.3 kmh 29.50 in999.0 mb 0.00 in0.0 mm 0.00 in0.0 mm 0.11 in2.8 mm
03:00 PM 31.6°F-0.2°C 30.6°F-0.8°C 96% 4.0 mph SSW6.4 kmh SSW 5.0 mph8.0 kmh 29.49 in998.6 mb 0.00 in0.0 mm 0.00 in0.0 mm 0.11 in2.8 mm
03:15 PM 31.7°F-0.2°C 30.7°F-0.7°C 96% 4.0 mph SW6.4 kmh SW 5.0 mph8.0 kmh 29.49 in998.6 mb 0.00 in0.0 mm 0.00 in0.0 mm 0.11 in2.8 mm
03:30 PM 31.8°F-0.1°C 30.8°F-0.7°C 96% 6.0 mph SSW9.7 kmh SSW 7.0 mph11.3 kmh 29.49 in998.6 mb 0.00 in0.0 mm 0.00 in0.0 mm 0.11 in2.8 mm
03:45 PM 31.8°F-0.1°C 30.8°F-0.7°C 96% 7.0 mph SW11.3 kmh SW 9.0 mph14.5 kmh 29.49 in998.6 mb 0.00 in0.0 mm 0.00 in0.0 mm 0.11 in2.8 mm
04:00 PM 32.0°F0.0°C 31.0°F-0.6°C 96% 7.0 mph SW11.3 kmh SW 9.0 mph14.5 kmh 29.48 in998.3 mb 0.00 in0.0 mm 0.00 in0.0 mm 0.11 in2.8 mm
04:15 PM 31.9°F-0.1°C 30.9°F-0.6°C 96% 5.0 mph WSW8.0 kmh WSW 10.0 mph16.1 kmh 29.48 in998.3 mb 0.00 in0.0 mm 0.00 in0.0 mm 0.11 in2.8 mm
04:30 PM 31.9°F-0.1°C 30.9°F-0.6°C 96% 8.0 mph WSW12.9 kmh WSW 10.0 mph16.1 kmh 29.48 in998.3 mb 0.00 in0.0 mm 0.00 in0.0 mm 0.11 in2.8 mm
04:45 PM 32.1°F0.1°C 31.1°F-0.5°C 96% 7.0 mph W11.3 kmh W 12.0 mph19.3 kmh 29.48 in998.3 mb 0.00 in0.0 mm 0.00 in0.0 mm 0.11 in2.8 mm
05:00 PM 32.3°F0.2°C 31.3°F-0.4°C 96% 12.0 mph WNW19.3 kmh WNW 16.0 mph25.7 kmh 29.48 in998.3 mb 0.00 in0.0 mm 0.00 in0.0 mm 0.11 in2.8 mm
05:15 PM 32.5°F0.3°C 31.2°F-0.4°C 95% 7.0 mph NW11.3 kmh NW 15.0 mph24.1 kmh 29.49 in998.6 mb 0.00 in0.0 mm 0.00 in0.0 mm 0.11 in2.8 mm
05:30 PM 32.7°F0.4°C 31.2°F-0.4°C 94% 12.0 mph W19.3 kmh W 16.0 mph25.7 kmh 29.50 in999.0 mb 0.00 in0.0 mm 0.00 in0.0 mm 0.11 in2.8 mm
05:45 PM 32.7°F0.4°C 31.2°F-0.4°C 94% 9.0 mph WNW14.5 kmh WNW 17.0 mph27.4 kmh 29.50 in999.0 mb 0.00 in0.0 mm 0.00 in0.0 mm 0.11 in2.8 mm
06:00 PM 32.7°F0.4°C 30.9°F-0.6°C 93% 11.0 mph W17.7 kmh W 15.0 mph24.1 kmh 29.51 in999.3 mb 0.00 in0.0 mm 0.00 in0.0 mm 0.11 in2.8 mm
06:15 PM 32.7°F0.4°C 30.9°F-0.6°C 93% 7.0 mph WNW11.3 kmh WNW 15.0 mph24.1 kmh 29.52 in999.7 mb 0.00 in0.0 mm 0.00 in0.0 mm 0.11 in2.8 mm
06:30 PM 32.4°F0.2°C 30.9°F-0.6°C 94% 6.0 mph NNW9.7 kmh NNW 13.0 mph20.9 kmh 29.52 in999.7 mb 0.00 in0.0 mm 0.00 in0.0 mm 0.11 in2.8 mm
06:45 PM 32.5°F0.3°C 30.7°F-0.7°C 93% 14.0 mph W22.5 kmh W 19.0 mph30.6 kmh 29.53 in1000.0 mb 0.00 in0.0 mm 0.00 in0.0 mm 0.11 in2.8 mm
07:00 PM 32.5°F0.3°C 30.2°F-1.0°C 91% 15.0 mph W24.1 kmh W 24.0 mph38.6 kmh 29.53 in1000.0 mb 0.00 in0.0 mm 0.00 in0.0 mm 0.11 in2.8 mm
07:15 PM 32.3°F0.2°C 30.2°F-1.0°C 92% 8.0 mph NW12.9 kmh NW 17.0 mph27.4 kmh 29.54 in1000.3 mb 0.00 in0.0 mm 0.00 in0.0 mm 0.11 in2.8 mm
07:30 PM 32.2°F0.1°C 29.9°F-1.2°C 91% 13.0 mph NW20.9 kmh NW 18.0 mph29.0 kmh 29.54 in1000.3 mb 0.00 in0.0 mm 0.00 in0.0 mm 0.11 in2.8 mm
07:45 PM 32.1°F0.1°C 29.8°F-1.2°C 91% 11.0 mph W17.7 kmh W 17.0 mph27.4 kmh 29.55 in1000.7 mb 0.00 in0.0 mm 0.00 in0.0 mm 0.11 in2.8 mm
08:00 PM 32.0°F0.0°C 29.7°F-1.3°C 91% 11.0 mph W17.7 kmh W 20.0 mph32.2 kmh 29.56 in1001.0 mb 0.00 in0.0 mm 0.00 in0.0 mm 0.11 in2.8 mm
08:15 PM 31.7°F-0.2°C 29.4°F-1.4°C 91% 16.0 mph W25.7 kmh W 19.0 mph30.6 kmh 29.56 in1001.0 mb 0.00 in0.0 mm 0.00 in0.0 mm 0.11 in2.8 mm
08:30 PM 31.6°F-0.2°C 29.0°F-1.7°C 90% 16.0 mph W25.7 kmh W 16.0 mph25.7 kmh 29.57 in1001.4 mb 0.00 in0.0 mm 0.00 in0.0 mm 0.11 in2.8 mm
08:45 PM 31.4°F-0.3°C 28.8°F-1.8°C 90% 13.0 mph WNW20.9 kmh WNW 17.0 mph27.4 kmh 29.58 in1001.7 mb 0.00 in0.0 mm 0.00 in0.0 mm 0.11 in2.8 mm
09:00 PM 31.0°F-0.6°C 29.0°F-1.7°C 92% 10.0 mph W16.1 kmh W 15.0 mph24.1 kmh 29.59 in1002.0 mb 0.00 in0.0 mm 0.00 in0.0 mm 0.11 in2.8 mm
09:15 PM 30.7°F-0.7°C 28.9°F-1.7°C 93% 11.0 mph W17.7 kmh W 13.0 mph20.9 kmh 29.59 in1002.0 mb 0.00 in0.0 mm 0.00 in0.0 mm 0.11 in2.8 mm
09:30 PM 30.5°F-0.8°C 28.7°F-1.8°C 93% 5.0 mph NW8.0 kmh NW 11.0 mph17.7 kmh 29.60 in1002.4 mb 0.00 in0.0 mm 0.00 in0.0 mm 0.11 in2.8 mm
09:45 PM 30.5°F-0.8°C 28.7°F-1.8°C 93% 11.0 mph W17.7 kmh W 14.0 mph22.5 kmh 29.61 in1002.7 mb 0.00 in0.0 mm 0.00 in0.0 mm 0.11 in2.8 mm
10:00 PM 30.6°F-0.8°C 28.6°F-1.9°C 92% 13.0 mph NW20.9 kmh NW 17.0 mph27.4 kmh 29.61 in1002.7 mb 0.00 in0.0 mm 0.00 in0.0 mm 0.11 in2.8 mm
10:15 PM 30.4°F-0.9°C 28.4°F-2.0°C 92% 7.0 mph WNW11.3 kmh WNW 13.0 mph20.9 kmh 29.62 in1003.0 mb 0.00 in0.0 mm 0.00 in0.0 mm 0.11 in2.8 mm
10:30 PM 30.2°F-1.0°C 28.4°F-2.0°C 93% 8.0 mph W12.9 kmh W 11.0 mph17.7 kmh 29.62 in1003.0 mb 0.00 in0.0 mm 0.00 in0.0 mm 0.11 in2.8 mm
10:45 PM 30.0°F-1.1°C 28.5°F-1.9°C 94% 8.0 mph NW12.9 kmh NW 15.0 mph24.1 kmh 29.62 in1003.0 mb 0.00 in0.0 mm 0.00 in0.0 mm 0.11 in2.8 mm
11:00 PM 29.9°F-1.2°C 28.1°F-2.2°C 93% 9.0 mph WNW14.5 kmh WNW 14.0 mph22.5 kmh 29.63 in1003.4 mb 0.00 in0.0 mm 0.00 in0.0 mm 0.11 in2.8 mm
11:15 PM 30.1°F-1.1°C 27.8°F-2.3°C 91% 12.0 mph W19.3 kmh W 17.0 mph27.4 kmh 29.63 in1003.4 mb 0.00 in0.0 mm 0.00 in0.0 mm 0.11 in2.8 mm
11:30 PM 30.3°F-0.9°C 27.5°F-2.5°C 89% 13.0 mph W20.9 kmh W 20.0 mph32.2 kmh 29.64 in1003.7 mb 0.00 in0.0 mm 0.00 in0.0 mm 0.11 in2.8 mm
11:45 PM 30.3°F-0.9°C 27.2°F-2.7°C 88% 11.0 mph W17.7 kmh W 15.0 mph24.1 kmh 29.64 in1003.7 mb 0.00 in0.0 mm 0.00 in0.0 mm 0.11 in2.8 mm